Time;durP1;ratioP1;P1;durP2;ratioP2;P2;SDS_P1;SDS_P2;PMS_P1;PMS_P2;Temp;Humidity;BMP_temperature;BMP_pressure;BME280_temperature;BME280_humidity;BME280_pressure;Samples;Min_cycle;Max_cycle;Signal;HPM_P1;HPM_P2
2022/04/18 00:00:09;;;;;;;1.52;1.17;;;;;;;8.66;41.25;100270.87;4352797;32;34054;-83
2022/04/18 00:02:41;;;;;;;3.42;1.08;;;;;;;8.40;40.64;100269.84;4353729;32;33960;-83
2022/04/18 00:05:12;;;;;;;2.60;1.17;;;;;;;8.49;39.96;100273.09;4368542;32;33570;-83
2022/04/18 00:07:40;;;;;;;1.90;1.25;;;;;;;9.02;39.28;100268.97;4366255;32;34522;-83
2022/04/18 00:10:08;;;;;;;2.55;1.20;;;;;;;8.64;41.21;100262.12;4367592;32;33525;-83
2022/04/18 00:12:47;;;;;;;1.40;1.20;;;;;;;8.53;40.92;100266.84;4367974;32;33525;-82
2022/04/18 00:15:16;;;;;;;0.98;0.70;;;;;;;8.75;40.81;100262.72;4368623;32;33398;-83
2022/04/18 00:17:43;;;;;;;1.50;0.90;;;;;;;8.70;39.20;100262.00;4358240;32;34094;-83
2022/04/18 00:20:11;;;;;;;2.28;1.00;;;;;;;8.75;39.12;100253.97;4354835;32;34609;-82
2022/04/18 00:22:40;;;;;;;1.60;1.10;;;;;;;8.92;39.58;100257.81;4355324;32;34285;-82
2022/04/18 00:25:08;;;;;;;1.83;1.08;;;;;;;8.69;40.36;100253.22;4369249;32;33151;-82
2022/04/18 00:27:35;;;;;;;2.30;0.95;;;;;;;9.07;39.73;100255.62;4361396;32;35676;-82
2022/04/18 00:30:03;;;;;;;2.97;1.27;;;;;;;9.05;40.06;100252.19;4356690;32;33142;-82
2022/04/18 00:32:34;;;;;;;2.55;1.15;;;;;;;9.10;40.62;100250.25;4356280;32;33838;-82
2022/04/18 00:35:05;;;;;;;2.87;1.23;;;;;;;9.25;39.64;100249.78;4359346;32;33393;-82
2022/04/18 00:37:33;;;;;;;1.37;1.00;;;;;;;9.27;39.39;100244.50;4367106;32;32503;-82
2022/04/18 00:40:01;;;;;;;2.30;1.30;;;;;;;9.30;39.77;100242.59;4365670;32;33003;-82
2022/04/18 00:42:30;;;;;;;1.42;1.17;;;;;;;9.41;39.89;100240.50;4365873;32;33899;-82
2022/04/18 00:45:00;;;;;;;3.97;1.05;;;;;;;9.49;39.88;100240.25;4367519;32;33356;-82
2022/04/18 00:47:29;;;;;;;2.90;1.00;;;;;;;9.33;40.19;100237.25;4364172;32;32903;-82
2022/04/18 00:49:58;;;;;;;3.15;1.33;;;;;;;9.26;40.46;100232.19;4368688;32;33412;-82
2022/04/18 00:52:27;;;;;;;2.03;1.55;;;;;;;9.35;40.75;100230.16;4368095;32;33213;-82
2022/04/18 00:54:55;;;;;;;1.90;1.58;;;;;;;9.46;40.75;100228.03;4356208;32;33514;-83
2022/04/18 00:57:24;;;;;;;1.48;1.20;;;;;;;9.35;41.08;100230.16;4368251;32;32686;-83
2022/04/18 00:59:53;;;;;;;1.70;1.10;;;;;;;9.37;40.46;100220.44;4367100;32;34186;-83
2022/04/18 01:02:24;;;;;;;3.15;1.40;;;;;;;9.28;41.28;100228.62;4366657;32;33923;-83
2022/04/18 01:04:53;;;;;;;1.40;0.93;;;;;;;9.32;41.75;100224.13;4353177;32;32610;-83
2022/04/18 01:07:21;;;;;;;2.42;1.50;;;;;;;9.36;41.47;100221.34;4368085;32;33239;-83
2022/04/18 01:09:49;;;;;;;5.50;1.77;;;;;;;9.29;41.26;100216.31;4365601;32;32813;-83
2022/04/18 01:12:18;;;;;;;3.50;1.27;;;;;;;9.13;41.35;100219.44;4365768;32;33509;-82
2022/04/18 01:14:54;;;;;;;2.33;1.25;;;;;;;9.26;42.21;100214.66;4352900;32;34957;-82
2022/04/18 01:17:23;;;;;;;4.00;1.50;;;;;;;9.38;41.52;100208.97;4364475;32;33233;-83
2022/04/18 01:19:51;;;;;;;3.97;1.35;;;;;;;9.30;41.49;100212.75;4366952;32;32367;-83
2022/04/18 01:22:22;;;;;;;2.58;1.85;;;;;;;9.30;41.73;100205.72;4365599;32;32330;-82
2022/04/18 01:30:24;;;;;;;5.18;1.50;;;;;;;9.23;41.17;100193.66;4363662;32;33600;-84
2022/04/18 01:32:52;;;;;;;2.25;1.27;;;;;;;9.06;42.36;100195.94;4355265;32;32526;-84
2022/04/18 01:35:20;;;;;;;2.83;1.42;;;;;;;9.03;42.26;100193.44;4353019;32;33462;-83
2022/04/18 01:37:48;;;;;;;1.35;1.00;;;;;;;9.27;41.61;100190.00;4351425;32;34003;-83
2022/04/18 01:40:16;;;;;;;2.10;1.12;;;;;;;9.39;40.69;100189.59;4366347;32;34382;-83
2022/04/18 01:42:44;;;;;;;1.52;1.10;;;;;;;9.33;40.81;100187.16;4359763;32;33980;-83
2022/04/18 01:45:12;;;;;;;1.92;1.12;;;;;;;9.22;40.85;100184.03;4353499;32;33848;-82
2022/04/18 01:47:40;;;;;;;2.55;1.10;;;;;;;9.32;41.00;100176.69;4366523;32;34754;-83
2022/04/18 01:50:09;;;;;;;1.62;1.20;;;;;;;9.15;41.86;100177.22;4340818;32;34212;-82
2022/04/18 01:52:38;;;;;;;3.65;1.35;;;;;;;9.13;42.23;100186.97;4368290;32;33728;-83
2022/04/18 01:55:06;;;;;;;2.53;1.67;;;;;;;9.18;42.16;100174.50;4370919;32;32401;-83
2022/04/18 01:57:34;;;;;;;2.85;1.40;;;;;;;8.93;42.98;100174.41;4367336;32;33626;-81
2022/04/18 02:00:04;;;;;;;1.90;1.17;;;;;;;9.19;42.25;100170.94;4355423;32;32728;-82
2022/04/18 02:02:40;;;;;;;2.62;1.20;;;;;;;9.19;42.11;100163.03;4355785;32;33812;-82
2022/04/18 02:05:08;;;;;;;2.20;1.15;;;;;;;9.10;42.25;100172.09;4367300;32;34135;-82
2022/04/18 02:07:36;;;;;;;2.30;0.98;;;;;;;9.32;41.81;100163.50;4357064;32;32481;-82
2022/04/18 02:10:05;;;;;;;1.87;1.10;;;;;;;9.11;42.01;100157.16;4367922;32;33060;-82
2022/04/18 02:12:33;;;;;;;1.45;1.25;;;;;;;9.31;41.23;100161.78;4365295;32;32763;-82
2022/04/18 02:15:01;;;;;;;1.48;1.00;;;;;;;9.29;41.21;100163.59;4363369;32;33309;-82
2022/04/18 02:17:30;;;;;;;2.40;1.02;;;;;;;9.29;41.44;100151.28;4365559;32;33658;-82
2022/04/18 02:19:59;;;;;;;3.42;1.00;;;;;;;9.19;41.96;100152.50;4368373;32;34263;-82
2022/04/18 02:22:27;;;;;;;2.35;1.05;;;;;;;9.14;42.35;100151.78;4367110;32;34165;-82
2022/04/18 02:24:57;;;;;;;3.65;1.33;;;;;;;9.10;42.42;100144.91;4367208;32;33452;-82
2022/04/18 02:27:26;;;;;;;1.58;1.10;;;;;;;8.89;43.67;100142.03;4355818;32;33386;-82
2022/04/18 02:29:54;;;;;;;1.30;1.00;;;;;;;9.05;43.39;100133.66;4365483;32;33189;-81
2022/04/18 02:35:09;;;;;;;1.70;1.08;;;;;;;8.90;44.13;100137.62;4366109;32;34216;-82
2022/04/18 02:37:38;;;;;;;1.70;1.00;;;;;;;9.01;44.05;100137.28;4369700;32;33503;-82
2022/04/18 02:40:07;;;;;;;1.58;1.10;;;;;;;9.02;44.35;100133.72;4343458;32;34215;-82
2022/04/18 02:42:34;;;;;;;3.25;2.00;;;;;;;9.09;44.33;100128.22;4366346;32;33857;-83
2022/04/18 02:45:04;;;;;;;4.50;1.60;;;;;;;9.10;44.21;100129.94;4370240;32;32038;-83
2022/04/18 02:47:38;;;;;;;3.30;1.98;;;;;;;9.15;44.56;100125.37;4363570;32;33757;-83
2022/04/18 02:50:08;;;;;;;2.85;2.00;;;;;;;8.93;44.92;100122.59;4359328;32;34080;-82
2022/04/18 02:52:36;;;;;;;1.23;0.98;;;;;;;9.05;44.57;100120.47;4371125;32;33443;-82
2022/04/18 02:55:07;;;;;;;1.92;1.27;;;;;;;9.16;44.00;100116.59;4365160;32;33909;-82
2022/04/18 02:57:38;;;;;;;3.22;1.17;;;;;;;9.12;44.15;100111.47;4367881;32;32762;-82
2022/04/18 03:00:08;;;;;;;2.72;1.55;;;;;;;9.21;44.12;100105.91;4369533;32;34674;-82
2022/04/18 03:02:39;;;;;;;2.15;1.08;;;;;;;9.05;44.60;100117.84;4358099;32;33624;-82
2022/04/18 03:05:08;;;;;;;2.70;1.42;;;;;;;9.04;44.52;100108.22;4356627;32;33637;-82
2022/04/18 03:07:42;;;;;;;2.75;1.00;;;;;;;9.11;44.44;100113.22;4371698;32;32802;-82
2022/04/18 03:10:11;;;;;;;3.25;0.98;;;;;;;9.23;43.82;100104.06;4370654;32;33653;-83
2022/04/18 03:12:39;;;;;;;1.23;1.00;;;;;;;9.16;44.18;100105.16;4368107;32;33628;-83
2022/04/18 03:15:09;;;;;;;1.27;1.05;;;;;;;9.20;43.83;100101.53;4368636;32;33379;-83
2022/04/18 03:17:41;;;;;;;1.73;0.85;;;;;;;9.21;44.01;100101.50;4370451;32;34596;-83
2022/04/18 03:20:09;;;;;;;3.17;1.17;;;;;;;9.16;43.89;100097.25;4370420;32;33485;-83
2022/04/18 03:22:37;;;;;;;1.73;1.00;;;;;;;9.27;43.30;100095.16;4369046;32;33979;-83
2022/04/18 03:25:06;;;;;;;4.22;0.90;;;;;;;9.08;43.58;100091.41;4350837;32;32683;-83
2022/04/18 03:27:34;;;;;;;3.28;1.10;;;;;;;9.12;43.13;100095.66;4353666;32;33049;-82
2022/04/18 03:30:02;;;;;;;1.05;0.75;;;;;;;8.98;42.78;100099.59;4369506;32;33677;-82
2022/04/18 03:32:31;;;;;;;1.87;1.02;;;;;;;9.12;42.48;100096.53;4353990;32;33849;-82
2022/04/18 03:35:00;;;;;;;1.23;1.10;;;;;;;9.16;42.68;100092.00;4356977;32;32153;-82
2022/04/18 03:40:15;;;;;;;1.95;1.15;;;;;;;9.30;42.50;100095.03;4368965;32;32546;-82
2022/04/18 03:42:43;;;;;;;2.30;1.17;;;;;;;9.38;42.18;100085.09;4366906;32;33645;-82
2022/04/18 03:45:11;;;;;;;2.03;1.10;;;;;;;9.42;42.24;100088.50;4353039;32;32504;-82
2022/04/18 03:47:41;;;;;;;1.35;1.25;;;;;;;9.36;42.44;100083.44;4352595;32;32854;-82
2022/04/18 03:50:10;;;;;;;1.65;1.02;;;;;;;9.24;42.78;100075.03;4368101;32;33687;-82
2022/04/18 03:52:39;;;;;;;1.95;1.33;;;;;;;9.31;42.51;100080.09;4368672;32;33688;-82
2022/04/18 03:55:08;;;;;;;3.45;1.08;;;;;;;9.29;42.63;100077.50;4367314;32;33686;-82
2022/04/18 03:57:37;;;;;;;2.17;1.48;;;;;;;9.19;42.68;100069.06;4367664;32;34607;-83
2022/04/18 04:00:07;;;;;;;1.30;1.05;;;;;;;9.27;43.35;100071.44;4368150;32;32896;-82
2022/04/18 04:02:40;;;;;;;2.92;1.12;;;;;;;9.21;43.53;100066.38;4366273;32;32860;-82
2022/04/18 04:05:09;;;;;;;2.85;0.88;;;;;;;9.17;44.02;100072.66;4366335;32;34019;-82
2022/04/18 04:07:37;;;;;;;2.72;1.15;;;;;;;9.21;43.93;100069.03;4368069;32;33647;-82
2022/04/18 04:10:07;;;;;;;3.35;1.10;;;;;;;9.10;44.04;100071.13;4355487;32;33451;-82
2022/04/18 04:12:35;;;;;;;1.58;1.20;;;;;;;9.26;43.88;100067.09;4366441;32;34072;-82
2022/04/18 04:15:04;;;;;;;2.17;1.15;;;;;;;9.20;44.23;100062.88;4369025;32;33275;-82
2022/04/18 04:17:33;;;;;;;2.30;1.33;;;;;;;9.24;44.31;100066.25;4368048;32;33940;-82
2022/04/18 04:20:22;;;;;;;1.62;0.90;;;;;;;9.30;43.96;100063.41;4366144;32;33083;-82
2022/04/18 04:22:53;;;;;;;2.17;1.10;;;;;;;9.05;44.67;100062.53;4355787;32;33571;-83
2022/04/18 04:25:27;;;;;;;2.35;1.42;;;;;;;9.17;44.40;100067.41;4368086;32;31916;-82
2022/04/18 04:27:56;;;;;;;1.73;1.10;;;;;;;9.06;45.52;100064.25;4360540;32;32910;-82
2022/04/18 04:30:26;;;;;;;2.20;1.30;;;;;;;9.08;45.45;100059.81;4366343;32;35077;-82
2022/04/18 04:32:55;;;;;;;2.95;2.33;;;;;;;9.16;44.99;100063.00;4355911;32;33525;-82
2022/04/18 04:35:24;;;;;;;2.25;1.08;;;;;;;9.28;44.61;100059.97;4370042;32;33838;-82
2022/04/18 04:37:52;;;;;;;3.03;1.80;;;;;;;9.23;45.02;100061.91;4369254;32;33708;-82
2022/04/18 04:40:21;;;;;;;2.28;1.40;;;;;;;9.09;45.92;100064.16;4369251;32;33747;-82
2022/04/18 04:42:49;;;;;;;2.40;1.15;;;;;;;9.19;46.73;100060.28;4359489;32;34410;-82
2022/04/18 04:45:18;;;;;;;2.95;1.75;;;;;;;9.17;46.72;100060.34;4367154;32;35961;-82
2022/04/18 04:47:55;;;;;;;1.77;1.58;;;;;;;9.48;45.23;100062.78;4369427;32;34572;-82
2022/04/18 04:50:27;;;;;;;2.78;1.80;;;;;;;9.22;46.52;100060.19;4359250;32;33272;-82
2022/04/18 04:52:54;;;;;;;5.15;1.45;;;;;;;9.60;44.70;100061.50;4355915;32;33962;-82
2022/04/18 04:55:23;;;;;;;3.45;2.10;;;;;;;9.34;45.14;100065.03;4368051;32;32267;-82
2022/04/18 04:57:51;;;;;;;2.00;1.30;;;;;;;9.36;46.36;100055.31;4360591;32;33579;-82
2022/04/18 05:00:20;;;;;;;1.15;1.05;;;;;;;9.32;46.64;100053.69;4351404;32;32679;-83
2022/04/18 05:02:50;;;;;;;4.45;2.72;;;;;;;9.49;45.59;100051.34;4368708;32;34020;-82
2022/04/18 05:05:18;;;;;;;2.72;1.30;;;;;;;9.38;46.53;100052.62;4364875;32;32554;-81
2022/04/18 05:07:47;;;;;;;3.37;1.20;;;;;;;9.49;47.33;100051.34;4360067;32;34356;-83
2022/04/18 05:10:20;;;;;;;3.47;1.50;;;;;;;9.49;47.28;100051.34;4361756;32;34697;-82
2022/04/18 05:12:49;;;;;;;3.35;1.55;;;;;;;9.51;46.79;100053.06;4366664;32;33037;-82
2022/04/18 05:15:19;;;;;;;4.47;1.85;;;;;;;9.47;46.96;100050.53;4357762;32;33449;-82
2022/04/18 05:17:52;;;;;;;2.58;1.85;;;;;;;9.67;46.96;100051.59;4354503;32;32827;-82
2022/04/18 05:20:28;;;;;;;3.50;1.20;;;;;;;9.66;46.37;100050.72;4354875;32;33734;-82
2022/04/18 05:23:01;;;;;;;4.28;1.80;;;;;;;9.72;45.63;100055.78;4364978;32;34438;-83
2022/04/18 05:25:30;;;;;;;2.65;2.33;;;;;;;9.75;45.76;100046.91;4367606;32;33723;-82
2022/04/18 05:27:59;;;;;;;3.12;2.30;;;;;;;9.95;44.54;100047.03;4359881;32;34127;-83
2022/04/18 05:30:29;;;;;;;2.87;1.60;;;;;;;9.84;44.30;100054.47;4365114;32;34124;-82
2022/04/18 05:33:00;;;;;;;3.42;2.15;;;;;;;10.07;44.10;100052.78;4351714;32;30525;-83
2022/04/18 05:35:27;;;;;;;3.22;1.80;;;;;;;10.10;44.89;100045.59;4355207;32;33385;-82
2022/04/18 05:37:58;;;;;;;3.22;1.85;;;;;;;10.00;45.96;100052.97;4364074;32;33809;-83
2022/04/18 05:40:27;;;;;;;2.45;1.52;;;;;;;10.09;45.59;100043.00;4361503;32;33354;-82
2022/04/18 05:45:37;;;;;;;4.30;1.50;;;;;;;10.12;45.99;100048.19;4366085;32;33079;-84
2022/04/18 05:48:07;;;;;;;2.92;1.50;;;;;;;10.22;44.59;100045.13;4334090;32;32560;-84
2022/04/18 05:50:45;;;;;;;2.83;1.37;;;;;;;10.40;43.78;100043.59;4362565;32;34785;-84
2022/04/18 05:53:18;;;;;;;3.85;1.42;;;;;;;10.79;40.43;100037.63;4351964;32;33709;-84
2022/04/18 05:55:50;;;;;;;2.33;1.00;;;;;;;10.71;41.07;100032.66;4363187;32;31503;-83
2022/04/18 05:58:20;;;;;;;1.73;1.20;;;;;;;10.59;40.77;100035.81;4365162;32;34639;-84
2022/04/18 06:00:50;;;;;;;6.62;1.02;;;;;;;11.04;38.14;100045.41;4360832;32;34232;-84
2022/04/18 06:03:19;;;;;;;4.03;1.58;;;;;;;11.18;36.64;100036.91;4362874;32;33663;-84
2022/04/18 06:05:50;;;;;;;2.55;1.80;;;;;;;11.08;37.00;100031.16;4364162;32;33460;-84
2022/04/18 06:08:20;;;;;;;2.05;1.12;;;;;;;11.03;38.23;100044.56;4343838;32;32643;-85
2022/04/18 06:10:52;;;;;;;1.90;1.25;;;;;;;11.34;36.53;100037.94;4352897;32;33703;-85
2022/04/18 06:13:24;;;;;;;2.53;1.23;;;;;;;11.31;36.49;100037.25;4363057;32;33889;-84
2022/04/18 06:15:54;;;;;;;2.80;1.35;;;;;;;11.23;36.58;100034.91;4363049;32;33322;-85
2022/04/18 06:18:27;;;;;;;4.22;1.12;;;;;;;11.01;38.30;100038.47;4353410;32;33897;-83
2022/04/18 06:20:58;;;;;;;1.95;1.10;;;;;;;11.15;37.63;100039.66;4350967;32;33038;-84
2022/04/18 06:23:30;;;;;;;3.87;1.52;;;;;;;11.14;38.56;100035.31;4355440;32;33667;-84
2022/04/18 06:26:09;;;;;;;3.42;1.40;;;;;;;11.05;36.11;100038.34;4345043;32;32791;-83
2022/04/18 06:28:41;;;;;;;3.75;1.83;;;;;;;11.25;37.09;100039.22;4353484;32;33106;-83
2022/04/18 06:31:16;;;;;;;2.05;1.30;;;;;;;11.44;37.60;100047.22;4352759;32;33160;-83
2022/04/18 06:33:55;;;;;;;3.08;1.30;;;;;;;11.80;35.27;100041.22;4361845;32;33442;-82
2022/04/18 06:36:25;;;;;;;1.87;1.20;;;;;;;11.87;36.12;100037.44;4361499;32;31879;-84
2022/04/18 06:38:58;;;;;;;6.90;1.58;;;;;;;11.66;36.18;100046.28;4346138;32;33118;-84
2022/04/18 06:41:27;;;;;;;4.93;2.15;;;;;;;11.47;38.23;100043.59;4363486;32;33311;-84
2022/04/18 06:43:55;;;;;;;4.32;1.98;;;;;;;11.86;34.37;100035.69;4339536;32;32882;-84
2022/04/18 06:46:27;;;;;;;2.05;1.50;;;;;;;11.75;36.03;100036.16;4352154;32;32937;-83
2022/04/18 06:48:59;;;;;;;3.87;1.77;;;;;;;11.86;37.50;100034.84;4353467;32;33960;-84
2022/04/18 06:51:44;;;;;;;4.30;1.92;;;;;;;11.62;35.59;100039.41;4359388;32;35217;-84
2022/04/18 06:54:20;;;;;;;3.97;2.08;;;;;;;12.03;35.23;100032.28;4349181;32;32894;-85
2022/04/18 06:57:01;;;;;;;2.62;1.85;;;;;;;12.12;36.25;100041.59;4362436;32;34118;-84
2022/04/18 06:59:42;;;;;;;2.35;1.20;;;;;;;12.01;36.32;100042.97;4363281;32;32521;-85
2022/04/18 07:02:21;;;;;;;2.12;1.40;;;;;;;12.41;34.71;100033.16;4344371;32;34458;-84
2022/04/18 07:05:05;;;;;;;2.42;1.17;;;;;;;12.39;33.13;100028.84;4345211;32;32669;-84
2022/04/18 07:07:36;;;;;;;3.40;1.40;;;;;;;12.12;34.61;100037.16;4346952;32;35080;-85
2022/04/18 07:10:12;;;;;;;2.80;1.55;;;;;;;11.96;34.68;100037.00;4361582;32;34676;-85
2022/04/18 07:12:43;;;;;;;2.00;1.42;;;;;;;11.77;36.43;100036.97;4343987;32;33390;-83
2022/04/18 07:15:13;;;;;;;1.95;1.10;;;;;;;11.84;34.84;100040.22;4352960;32;33570;-83
2022/04/18 07:17:43;;;;;;;2.30;1.30;;;;;;;11.40;34.72;100037.72;4363663;32;33670;-83
2022/04/18 07:20:17;;;;;;;3.25;1.58;;;;;;;11.44;33.85;100036.66;4363995;32;34142;-83
2022/04/18 07:22:48;;;;;;;3.10;1.42;;;;;;;10.98;34.20;100035.97;4353654;32;31755;-84
2022/04/18 07:25:27;;;;;;;2.08;1.20;;;;;;;11.45;33.58;100035.72;4353073;32;33611;-83
2022/04/18 07:28:05;;;;;;;1.27;0.98;;;;;;;11.46;33.28;100026.84;4364275;32;32408;-84
2022/04/18 07:30:36;;;;;;;4.57;1.70;;;;;;;11.38;33.59;100034.25;4360358;32;33326;-83
2022/04/18 07:33:06;;;;;;;;;;;;;;;10.96;34.38;100031.66;4356037;32;33034;-83
2022/04/18 07:35:35;;;;;;;3.10;1.02;;;;;;;10.78;35.59;100041.22;4339650;32;32879;-83
2022/04/18 07:41:04;;;;;;;1.87;1.30;;;;;;;10.66;35.38;100033.78;4361060;32;32651;-83
2022/04/18 07:43:40;;;;;;;3.03;1.35;;;;;;;9.87;36.32;100043.78;4348820;32;33868;-83
2022/04/18 07:46:15;;;;;;;2.90;1.42;;;;;;;9.57;38.94;100044.91;4361880;32;33603;-83
2022/04/18 07:49:05;;;;;;;2.40;1.30;;;;;;;9.86;38.34;100052.62;4354941;32;33973;-83
2022/04/18 07:51:42;;;;;;;2.28;1.33;;;;;;;10.39;37.39;100036.56;4359033;32;34356;-84
2022/04/18 07:56:58;;;;;;;4.00;1.60;;;;;;;9.32;41.60;100039.66;4357525;32;33562;-83
2022/04/18 07:59:28;;;;;;;3.05;1.58;;;;;;;8.63;43.77;100050.69;4351295;32;31908;-83
2022/04/18 08:01:57;;;;;;;2.53;1.83;;;;;;;8.47;44.62;100065.25;4354027;32;32810;-83
2022/04/18 08:04:31;;;;;;;4.78;1.52;;;;;;;8.56;44.56;100056.22;4366339;32;33719;-83
2022/04/18 08:07:08;;;;;;;2.37;1.17;;;;;;;9.21;43.50;100046.16;4351283;32;31844;-83
2022/04/18 08:09:39;;;;;;;3.08;1.25;;;;;;;9.61;42.06;100042.12;4365329;32;33872;-84
2022/04/18 08:12:20;;;;;;;3.03;1.70;;;;;;;9.87;41.83;100038.53;4366831;32;34675;-83
2022/04/18 08:14:58;;;;;;;2.33;1.33;;;;;;;9.39;41.69;100030.59;4364025;32;35220;-83
2022/04/18 08:17:43;;;;;;;2.12;1.45;;;;;;;9.84;41.35;100022.84;4366439;32;34284;-83
2022/04/18 08:20:15;;;;;;;4.00;1.85;;;;;;;10.31;40.42;100022.84;4353673;32;33001;-83
2022/04/18 08:22:49;;;;;;;3.08;2.28;;;;;;;9.99;40.61;100022.25;4366256;32;34394;-83
2022/04/18 08:25:42;;;;;;;3.85;2.12;;;;;;;10.17;41.95;100019.84;4355629;32;33914;-83
2022/04/18 08:28:14;;;;;;;4.20;1.48;;;;;;;10.57;40.30;100020.94;4353162;32;33532;-83
2022/04/18 08:30:45;;;;;;;3.60;1.45;;;;;;;10.68;38.71;100006.41;4362846;32;32038;-83
2022/04/18 08:33:15;;;;;;;1.55;1.20;;;;;;;10.62;37.73;100001.34;4365280;32;32528;-83
2022/04/18 08:35:48;;;;;;;4.28;1.62;;;;;;;11.04;38.49;99992.56;4352936;32;33560;-83
2022/04/18 08:38:17;;;;;;;2.95;1.12;;;;;;;11.22;36.18;99996.22;4362986;32;33857;-83
2022/04/18 08:41:01;;;;;;;2.35;1.30;;;;;;;10.08;37.90;99999.09;4364834;32;34095;-83
2022/04/18 08:43:34;;;;;;;2.72;1.60;;;;;;;10.52;39.92;99992.94;4364760;32;33940;-83
2022/04/18 08:46:05;;;;;;;1.67;1.20;;;;;;;10.82;37.47;99984.66;4365775;32;33350;-83
2022/04/18 08:54:13;;;;;;;1.55;1.08;;;;;;;12.33;38.06;99987.63;4363206;32;33183;-83
2022/04/18 08:56:48;;;;;;;2.45;1.42;;;;;;;12.64;36.77;99975.56;4368415;32;32901;-84
2022/04/18 08:59:17;;;;;;;2.22;1.55;;;;;;;12.89;34.45;99962.78;4361456;32;32853;-83
2022/04/18 09:01:55;;;;;;;4.12;1.17;;;;;;;12.87;33.45;99967.31;4367416;32;32178;-83
2022/04/18 09:04:27;;;;;;;2.97;1.65;;;;;;;13.15;31.57;99965.88;4346657;32;33645;-83
2022/04/18 09:07:11;;;;;;;1.62;1.50;;;;;;;13.44;31.52;99961.78;4341153;32;33075;-83
2022/04/18 09:09:54;;;;;;;2.08;1.40;;;;;;;13.74;32.42;99956.63;4364578;32;35536;-83
2022/04/18 09:12:29;;;;;;;3.20;1.90;;;;;;;14.31;29.69;99949.00;4354097;32;33505;-83
2022/04/18 09:15:02;;;;;;;2.37;1.45;;;;;;;13.48;33.14;99958.00;4361953;32;33350;-83
2022/04/18 09:20:26;;;;;;;3.70;1.60;;;;;;;13.00;33.13;99952.50;4354928;32;34164;-83
2022/04/18 09:23:01;;;;;;;4.65;1.52;;;;;;;13.78;33.31;99944.91;4357428;32;32174;-83
2022/04/18 09:25:39;;;;;;;3.65;1.52;;;;;;;13.38;32.01;99947.03;4363997;32;33022;-83
2022/04/18 09:28:11;;;;;;;2.55;1.48;;;;;;;12.66;32.65;99944.53;4357750;32;33350;-83
2022/04/18 09:30:47;;;;;;;2.33;1.60;;;;;;;12.77;32.88;99940.44;4366354;32;33087;-84
2022/04/18 09:33:16;;;;;;;1.92;1.27;;;;;;;12.28;35.29;99944.62;4361989;32;32772;-83
2022/04/18 09:35:47;;;;;;;3.33;1.67;;;;;;;13.04;31.64;99930.19;4364592;32;32897;-83
2022/04/18 09:38:31;;;;;;;5.97;1.65;;;;;;;13.06;32.45;99925.69;4358692;32;33713;-83
2022/04/18 09:41:03;;;;;;;2.55;1.35;;;;;;;13.20;31.61;99924.13;4362106;32;33769;-84
2022/04/18 09:43:47;;;;;;;2.08;1.60;;;;;;;13.38;31.94;99927.59;4365770;32;32709;-83
2022/04/18 09:46:19;;;;;;;4.25;1.25;;;;;;;13.48;29.75;99916.44;4346582;32;32004;-83
2022/04/18 09:49:01;;;;;;;2.37;1.05;;;;;;;13.26;28.89;99921.16;4337916;32;34645;-83
2022/04/18 09:51:37;;;;;;;2.10;1.30;;;;;;;13.00;30.38;99911.88;4342746;32;32441;-83
2022/04/18 09:54:07;;;;;;;1.50;1.40;;;;;;;12.99;27.71;99908.38;4335451;32;32663;-83
2022/04/18 09:56:35;;;;;;;1.85;1.17;;;;;;;13.96;28.43;99901.41;4340822;32;33790;-83
2022/04/18 10:01:51;;;;;;;1.40;1.00;;;;;;;14.59;27.51;99890.72;4342367;32;34014;-83
2022/04/18 10:04:24;;;;;;;2.20;1.30;;;;;;;14.84;26.93;99884.78;4335470;33;33033;-83
2022/04/18 10:07:00;;;;;;;1.50;0.95;;;;;;;14.69;26.85;99885.72;4349332;32;32642;-83
2022/04/18 10:09:40;;;;;;;3.05;1.73;;;;;;;15.00;26.58;99876.78;4344265;32;33334;-83
2022/04/18 10:12:15;;;;;;;2.20;1.15;;;;;;;14.79;26.51;99886.03;4341576;32;32905;-84
2022/04/18 10:14:44;;;;;;;2.08;1.58;;;;;;;14.73;27.34;99881.09;4350960;32;33344;-84
2022/04/18 10:17:17;;;;;;;2.75;1.10;;;;;;;14.19;29.00;99870.03;4352448;32;33116;-83
2022/04/18 10:19:50;;;;;;;2.17;1.50;;;;;;;14.88;27.44;99880.16;4335602;32;33451;-83
2022/04/18 10:22:36;;;;;;;4.50;1.33;;;;;;;15.32;24.63;99864.13;4342886;32;33927;-83
2022/04/18 10:25:25;;;;;;;2.05;1.05;;;;;;;14.61;26.22;99869.34;4352138;32;33118;-83
2022/04/18 10:28:14;;;;;;;1.90;1.10;;;;;;;14.69;26.24;99863.59;4351578;32;32548;-83
2022/04/18 10:30:57;;;;;;;2.85;1.50;;;;;;;14.21;31.22;99861.03;4337902;33;33124;-83
2022/04/18 10:33:29;;;;;;;1.58;1.00;;;;;;;14.85;24.85;99856.41;4353087;32;33579;-83
2022/04/18 10:36:03;;;;;;;3.90;1.42;;;;;;;14.84;26.01;99857.34;4351260;32;33465;-83
2022/04/18 10:38:37;;;;;;;1.37;1.17;;;;;;;14.75;27.50;99852.59;4347714;32;33191;-84
2022/04/18 10:41:37;;;;;;;2.25;1.30;;;;;;;15.05;26.22;99847.25;4340211;33;34327;-83
2022/04/18 10:44:15;;;;;;;3.70;1.20;;;;;;;15.03;24.45;99842.00;4352289;32;34309;-83
2022/04/18 10:46:52;;;;;;;1.25;0.95;;;;;;;14.87;24.85;99843.03;4342115;32;32400;-83
2022/04/18 10:49:35;;;;;;;2.35;1.12;;;;;;;14.33;25.38;99844.38;4364974;32;34736;-85
2022/04/18 10:52:09;;;;;;;1.67;1.15;;;;;;;13.76;26.16;99849.41;4363720;32;33844;-84
2022/04/18 10:54:37;;;;;;;2.60;1.25;;;;;;;14.22;26.13;99845.97;4342245;32;33800;-84
2022/04/18 10:57:11;;;;;;;2.30;0.73;;;;;;;14.12;26.37;99840.31;4361730;32;32565;-85
2022/04/18 10:59:46;;;;;;;1.70;0.93;;;;;;;14.27;26.30;99841.25;4362769;32;32808;-84
2022/04/18 11:02:44;;;;;;;2.28;1.12;;;;;;;14.40;25.80;99836.91;4352900;32;33007;-84
2022/04/18 11:05:14;;;;;;;2.22;1.08;;;;;;;14.23;26.46;99832.59;4366550;32;33942;-84
2022/04/18 11:07:44;;;;;;;1.52;0.90;;;;;;;14.84;25.24;99825.47;4355051;32;33442;-84
2022/04/18 11:10:22;;;;;;;2.22;1.05;;;;;;;15.09;25.75;99817.69;4343061;32;32565;-84
2022/04/18 11:12:58;;;;;;;2.03;1.30;;;;;;;15.58;24.40;99811.09;4351771;32;34439;-84
2022/04/18 11:18:29;;;;;;;2.70;1.87;;;;;;;15.69;27.87;99807.75;4362494;32;32835;-83
2022/04/18 11:21:00;;;;;;;2.65;1.77;;;;;;;14.67;28.61;99812.31;4361243;32;33197;-83
2022/04/18 11:26:21;;;;;;;2.85;1.98;;;;;;;14.28;30.14;99806.59;4342713;32;33730;-83
2022/04/18 11:28:51;;;;;;;1.70;1.27;;;;;;;14.52;29.11;99812.28;4348613;32;33066;-83
2022/04/18 11:31:21;;;;;;;2.40;1.90;;;;;;;14.23;29.51;99802.53;4353391;32;33166;-83
2022/04/18 11:33:49;;;;;;;2.17;1.70;;;;;;;13.69;30.55;99813.56;4352017;32;32649;-83
2022/04/18 11:39:06;;;;;;;3.60;2.53;;;;;;;14.13;28.95;99811.97;4359488;32;32089;-83
2022/04/18 11:41:43;;;;;;;2.00;1.55;;;;;;;13.85;29.34;99808.25;4362357;32;35100;-82
2022/04/18 11:44:19;;;;;;;2.22;1.45;;;;;;;14.08;29.25;99805.13;4354677;32;33766;-83
2022/04/18 11:46:49;;;;;;;2.42;1.70;;;;;;;14.43;27.82;99806.66;4341886;32;32640;-83
2022/04/18 11:49:26;;;;;;;4.90;2.10;;;;;;;14.31;28.42;99810.91;4363026;32;32852;-83
2022/04/18 11:51:58;;;;;;;2.83;1.90;;;;;;;14.15;28.57;99826.00;4355958;32;33897;-82
2022/04/18 11:54:27;;;;;;;2.87;1.70;;;;;;;14.31;30.09;99826.84;4353735;32;33097;-83
2022/04/18 11:56:58;;;;;;;3.67;2.20;;;;;;;13.78;30.51;99822.81;4351453;32;32644;-83
2022/04/18 11:59:36;;;;;;;3.25;2.22;;;;;;;13.69;31.47;99820.69;4348717;32;32450;-83
2022/04/18 12:07:56;;;;;;;2.47;1.70;;;;;;;12.62;34.17;99826.41;4363385;32;34305;-83
2022/04/18 12:10:27;;;;;;;2.22;2.03;;;;;;;12.51;34.26;99827.84;4363046;32;33523;-83
2022/04/18 12:13:08;;;;;;;5.28;2.42;;;;;;;12.52;34.35;99821.59;4366291;32;32816;-83
2022/04/18 12:15:44;;;;;;;2.33;1.80;;;;;;;12.55;35.14;99808.19;4352286;32;33055;-82
2022/04/18 12:18:19;;;;;;;5.60;2.20;;;;;;;12.87;34.78;99797.72;4366159;32;33413;-82
2022/04/18 12:20:54;;;;;;;3.03;2.05;;;;;;;13.07;37.48;99805.44;4360831;32;34014;-82
2022/04/18 12:23:27;;;;;;;2.55;1.45;;;;;;;12.72;37.52;99798.50;4351771;32;33887;-83
2022/04/18 12:25:57;;;;;;;4.35;2.55;;;;;;;13.62;35.03;99792.75;4357549;32;34075;-83
2022/04/18 12:28:29;;;;;;;3.33;2.10;;;;;;;13.64;35.96;99790.91;4361744;32;34010;-82
2022/04/18 12:30:58;;;;;;;5.43;2.17;;;;;;;14.28;33.08;99790.66;4365009;32;32026;-82
2022/04/18 12:33:30;;;;;;;3.90;2.03;;;;;;;14.28;36.80;99784.50;4365302;32;33846;-82
2022/04/18 12:36:00;;;;;;;1.95;1.62;;;;;;;14.15;35.37;99784.41;4362341;32;34159;-83
2022/04/18 12:38:35;;;;;;;3.95;2.70;;;;;;;14.53;33.71;99781.31;4342765;32;32596;-82